Time;durP1;ratioP1;P1;durP2;ratioP2;P2;SDS_P1;SDS_P2;PMS_P1;PMS_P2;Temp;Humidity;BMP_temperature;BMP_pressure;BME280_temperature;BME280_humidity;BME280_pressure;Samples;Min_cycle;Max_cycle;Signal;HPM_P1;HPM_P2
2022/10/17 00:00:45;;;;;;;8.20;3.90;;;;;;;13.57;90.58;101254.69;102948;1297;60900;-76
2022/10/17 00:03:12;;;;;;;9.10;4.20;;;;;;;13.54;90.68;101254.42;103132;1297;60424;-74
2022/10/17 00:05:41;;;;;;;8.00;4.10;;;;;;;13.52;90.56;101248.80;103068;1289;60784;-75
2022/10/17 00:08:09;;;;;;;7.60;3.90;;;;;;;13.48;90.65;101247.91;102803;1302;60448;-76
2022/10/17 00:10:36;;;;;;;6.70;3.60;;;;;;;13.42;90.72;101244.30;103434;1288;73484;-74
2022/10/17 00:13:03;;;;;;;9.90;4.70;;;;;;;13.36;90.89;101236.94;102882;1302;70910;-73
2022/10/17 00:15:29;;;;;;;7.10;3.40;;;;;;;13.31;91.05;101238.79;102865;1295;71083;-76
2022/10/17 00:17:56;;;;;;;6.80;3.50;;;;;;;13.26;91.52;101236.34;102795;1303;61698;-77
2022/10/17 00:20:22;;;;;;;7.10;3.30;;;;;;;13.24;92.00;101232.52;102853;1289;60490;-76
2022/10/17 00:22:49;;;;;;;6.50;3.30;;;;;;;13.24;92.55;101238.73;103308;1298;60410;-75
2022/10/17 00:25:16;;;;;;;6.70;3.80;;;;;;;13.24;93.06;101233.40;103451;1293;70851;-74
2022/10/17 00:27:43;;;;;;;4.10;2.70;;;;;;;13.25;92.91;101234.05;103752;1287;72740;-75
2022/10/17 00:30:13;;;;;;;6.10;3.40;;;;;;;13.25;92.84;101233.53;102611;1305;61786;-75
2022/10/17 00:32:40;;;;;;;3.80;2.60;;;;;;;13.22;92.75;101228.77;102714;1302;60554;-75
2022/10/17 00:35:08;;;;;;;5.60;2.90;;;;;;;13.20;92.97;101226.73;102168;1287;73688;-74
2022/10/17 00:37:34;;;;;;;5.20;2.90;;;;;;;13.17;92.99;101228.02;102366;1303;70015;-75
2022/10/17 00:40:00;;;;;;;4.40;2.80;;;;;;;13.14;92.88;101227.32;102568;1302;61099;-74
2022/10/17 00:42:27;;;;;;;4.70;2.90;;;;;;;13.12;92.96;101224.05;103001;1288;61041;-74
2022/10/17 00:45:28;;;;;;;5.50;3.10;;;;;;;13.10;92.91;101227.41;102604;1303;60514;-75
2022/10/17 00:47:59;;;;;;;4.40;2.90;;;;;;;13.06;92.95;101229.27;103161;1297;72315;-74
2022/10/17 00:50:27;;;;;;;4.80;2.80;;;;;;;13.03;93.09;101232.09;102574;1302;69568;-74
2022/10/17 00:52:58;;;;;;;6.80;3.10;;;;;;;13.00;93.28;101230.98;102724;1295;72862;-74
2022/10/17 00:55:29;;;;;;;5.20;3.00;;;;;;;12.99;93.50;101229.92;102586;1297;61938;-73
2022/10/17 00:57:59;;;;;;;6.00;3.20;;;;;;;12.97;93.63;101225.30;102689;1287;60496;-74
2022/10/17 01:00:25;;;;;;;5.10;2.90;;;;;;;12.98;93.74;101224.20;102677;1297;73540;-74
2022/10/17 01:02:52;;;;;;;5.60;2.90;;;;;;;12.97;93.60;101222.64;103348;1294;70295;-75
2022/10/17 01:05:20;;;;;;;5.40;2.90;;;;;;;12.98;93.66;101220.96;103862;1294;61647;-75
2022/10/17 01:07:49;;;;;;;4.50;3.00;;;;;;;12.98;93.53;101222.80;102750;1301;60642;-75
2022/10/17 01:10:16;;;;;;;7.10;3.00;;;;;;;12.96;93.52;101222.06;102574;1281;60426;-74
2022/10/17 01:13:07;;;;;;;5.70;2.90;;;;;;;12.95;93.72;101223.63;102662;1301;73039;-75
2022/10/17 01:15:58;;;;;;;5.20;3.20;;;;;;;12.94;93.74;101219.71;102550;1294;69805;-74
2022/10/17 01:18:56;;;;;;;5.50;3.30;;;;;;;12.92;93.78;101221.63;102238;1297;72460;-73
2022/10/17 01:22:00;;;;;;;6.50;3.10;;;;;;;12.91;93.95;101221.99;103351;1294;60646;-73
2022/10/17 01:24:47;;;;;;;4.60;3.00;;;;;;;12.87;94.08;101221.36;103210;1294;60524;-74
2022/10/17 01:27:41;;;;;;;5.50;3.20;;;;;;;12.82;94.61;101215.33;103027;1301;73688;-74
2022/10/17 01:30:49;;;;;;;5.60;2.80;;;;;;;12.79;94.69;101212.55;102867;1295;71162;-74
2022/10/17 01:33:29;;;;;;;6.30;3.30;;;;;;;12.75;96.09;101209.11;102283;1296;72642;-76
2022/10/17 01:36:19;;;;;;;7.60;3.40;;;;;;;12.71;96.06;101206.14;102803;1302;61874;-75
2022/10/17 01:38:55;;;;;;;5.60;3.30;;;;;;;12.68;95.88;101207.98;103084;1301;60419;-75
2022/10/17 01:41:50;;;;;;;7.00;3.40;;;;;;;12.64;95.82;101208.33;103480;1287;74057;-76
2022/10/17 01:44:18;;;;;;;7.20;3.10;;;;;;;12.61;95.86;101204.78;102334;1294;69823;-76
2022/10/17 01:46:58;;;;;;;6.30;3.30;;;;;;;12.58;96.56;101201.95;102463;1295;73665;-74
2022/10/17 01:49:28;;;;;;;7.20;3.20;;;;;;;12.57;96.78;101196.63;103112;1293;61848;-74
2022/10/17 01:52:09;;;;;;;5.20;3.00;;;;;;;12.54;97.29;101199.17;102625;1295;60428;-75
2022/10/17 01:54:48;;;;;;;6.70;3.30;;;;;;;12.55;97.25;101195.23;102717;1293;73778;-75
2022/10/17 01:57:48;;;;;;;5.70;3.20;;;;;;;12.55;97.19;101193.02;103244;1304;69717;-75
2022/10/17 02:00:19;;;;;;;6.20;3.20;;;;;;;12.57;97.02;101192.66;102668;1301;71220;-75
2022/10/17 02:02:48;;;;;;;5.20;3.00;;;;;;;12.59;96.96;101190.82;102684;1287;62044;-74
2022/10/17 02:05:18;;;;;;;6.10;3.30;;;;;;;12.61;96.77;101193.81;102395;1304;60601;-74
2022/10/17 02:07:44;;;;;;;9.50;3.70;;;;;;;12.62;96.59;101193.80;102454;1302;73626;-74
2022/10/17 02:10:25;;;;;;;6.70;3.60;;;;;;;12.63;96.23;101192.09;102424;1301;60829;-75
2022/10/17 02:13:10;;;;;;;10.70;5.20;;;;;;;12.64;96.18;101193.82;102588;1304;71264;-74
2022/10/17 02:15:58;;;;;;;7.30;4.00;;;;;;;12.63;95.83;101184.71;103249;1297;60948;-74
2022/10/17 02:18:31;;;;;;;5.60;3.40;;;;;;;12.60;95.70;101182.16;102938;1297;60530;-74
2022/10/17 02:21:26;;;;;;;5.20;3.40;;;;;;;12.58;95.38;101178.58;102692;1300;72788;-74
2022/10/17 02:24:11;;;;;;;8.40;3.60;;;;;;;12.55;95.62;101178.55;102567;1294;70027;-75
2022/10/17 02:27:16;;;;;;;7.10;3.60;;;;;;;12.52;95.53;101176.73;102904;1297;72772;-75
2022/10/17 02:29:53;;;;;;;5.30;3.30;;;;;;;12.49;95.58;101170.03;102133;1304;60500;-75
2022/10/17 02:32:25;;;;;;;7.10;3.50;;;;;;;12.45;95.73;101165.45;102522;1295;61839;-74
2022/10/17 02:34:55;;;;;;;6.90;3.40;;;;;;;12.42;96.00;101160.88;103983;1300;73942;-75
2022/10/17 02:37:26;;;;;;;6.40;3.80;;;;;;;12.40;96.28;101161.22;102512;1305;71398;-73
2022/10/17 02:39:56;;;;;;;5.60;3.50;;;;;;;12.39;96.33;101159.05;102443;1300;72528;-74
2022/10/17 02:42:25;;;;;;;7.00;3.80;;;;;;;12.39;96.58;101156.10;102364;1295;60547;-74
2022/10/17 02:44:56;;;;;;;8.50;3.90;;;;;;;12.40;96.74;101158.11;102824;1291;60612;-74
2022/10/17 02:47:36;;;;;;;6.80;4.00;;;;;;;12.40;96.73;101162.73;102501;1300;73837;-74
2022/10/17 02:50:03;;;;;;;5.90;4.10;;;;;;;12.40;96.78;101164.86;102502;1297;69866;-75
2022/10/17 02:52:45;;;;;;;6.10;3.90;;;;;;;12.39;96.72;101167.97;102817;1304;72732;-75
2022/10/17 02:55:19;;;;;;;6.30;3.70;;;;;;;12.35;96.56;101166.66;103229;1299;61896;-75
2022/10/17 02:57:52;;;;;;;7.20;3.80;;;;;;;12.30;96.32;101165.61;102500;1303;60953;-75
2022/10/17 03:00:21;;;;;;;5.60;3.60;;;;;;;12.27;96.37;101162.08;102413;1297;274736;-75
2022/10/17 03:02:50;;;;;;;5.70;4.00;;;;;;;12.25;96.69;101162.77;102691;1297;70937;-75
2022/10/17 03:05:22;;;;;;;6.50;3.90;;;;;;;12.23;96.37;101164.98;102730;1305;71394;-74
2022/10/17 03:07:49;;;;;;;7.20;4.20;;;;;;;12.20;96.32;101163.14;102277;1302;60664;-75
2022/10/17 03:10:17;;;;;;;6.00;3.80;;;;;;;12.18;96.54;101162.97;102605;1296;61293;-74
2022/10/17 03:12:43;;;;;;;7.50;4.00;;;;;;;12.15;96.42;101162.48;103850;1297;72693;-75
2022/10/17 03:15:10;;;;;;;7.30;4.30;;;;;;;12.12;96.60;101159.88;103151;1291;60608;-75
2022/10/17 03:17:37;;;;;;;7.30;4.20;;;;;;;12.08;96.78;101162.77;102532;1297;72509;-74
2022/10/17 03:20:05;;;;;;;6.40;4.20;;;;;;;12.06;97.26;101162.95;102371;1298;62122;-74
2022/10/17 03:22:32;;;;;;;8.50;4.60;;;;;;;12.05;97.56;101163.61;102278;1303;60427;-74
2022/10/17 03:24:59;;;;;;;8.10;4.60;;;;;;;12.05;97.76;101164.31;102439;1302;72902;-75
2022/10/17 03:27:28;;;;;;;7.90;5.00;;;;;;;12.06;98.13;101161.91;102518;1297;70062;-75
2022/10/17 03:29:54;;;;;;;9.20;4.90;;;;;;;12.08;98.38;101161.54;103162;1302;71447;-75
2022/10/17 03:32:21;;;;;;;8.20;4.80;;;;;;;12.09;98.47;101161.57;102834;1298;60848;-75
2022/10/17 03:34:47;;;;;;;7.40;4.80;;;;;;;12.10;98.46;101161.70;102920;1303;60531;-75
2022/10/17 03:37:14;;;;;;;9.10;4.90;;;;;;;12.10;98.78;101157.00;102890;1287;62106;-76
2022/10/17 03:39:40;;;;;;;8.20;5.10;;;;;;;12.12;98.80;101161.42;102573;1297;60837;-75
2022/10/17 03:42:06;;;;;;;6.80;4.90;;;;;;;12.13;98.88;101161.10;102409;1295;60601;-75
2022/10/17 03:44:33;;;;;;;8.60;5.00;;;;;;;12.14;99.17;101162.40;102456;1297;60563;-75
2022/10/17 03:47:00;;;;;;;7.40;4.70;;;;;;;12.15;99.15;101167.31;103429;1302;60631;-75
2022/10/17 03:49:27;;;;;;;12.40;5.10;;;;;;;12.14;99.20;101165.77;102899;1302;73826;-75
2022/10/17 03:51:53;;;;;;;7.70;5.10;;;;;;;12.14;99.58;101165.39;103229;1302;60918;-75
2022/10/17 03:54:21;;;;;;;7.40;5.40;;;;;;;12.14;99.62;101163.46;102499;1302;61182;-75
2022/10/17 03:56:48;;;;;;;7.70;5.20;;;;;;;12.16;99.73;101159.36;102515;1302;61185;-74
2022/10/17 03:59:15;;;;;;;7.50;5.20;;;;;;;12.17;99.69;101161.05;102670;1300;60593;-75
2022/10/17 04:01:41;;;;;;;8.80;5.10;;;;;;;12.17;99.72;101161.85;102814;1303;73183;-75
2022/10/17 04:04:09;;;;;;;7.30;5.00;;;;;;;12.20;99.80;101161.94;103186;1295;71560;-75
2022/10/17 04:06:36;;;;;;;8.90;5.00;;;;;;;12.21;99.85;101161.96;103556;1295;72613;-75
2022/10/17 04:09:04;;;;;;;6.90;4.80;;;;;;;12.22;99.92;101160.40;102983;1302;60541;-75
2022/10/17 04:11:31;;;;;;;7.90;4.90;;;;;;;12.23;99.93;101160.20;102651;1297;60399;-74
2022/10/17 04:13:58;;;;;;;7.20;4.60;;;;;;;12.22;99.32;101166.85;102585;1298;60617;-74
2022/10/17 04:16:25;;;;;;;7.10;4.50;;;;;;;12.21;99.07;101161.80;102410;1295;69027;-75
2022/10/17 04:18:57;;;;;;;8.20;4.60;;;;;;;12.18;98.99;101163.54;102401;1295;73133;-76
2022/10/17 04:21:25;;;;;;;5.80;4.60;;;;;;;12.16;99.21;101162.52;102812;1295;60487;-75
2022/10/17 04:23:57;;;;;;;6.30;4.80;;;;;;;12.14;99.52;101164.69;102691;1297;60603;-75
2022/10/17 04:26:24;;;;;;;8.90;4.70;;;;;;;12.13;99.71;101172.64;102970;1302;73466;-74
2022/10/17 04:28:51;;;;;;;7.90;5.00;;;;;;;12.13;99.77;101168.45;102987;1297;69535;-74
2022/10/17 04:31:19;;;;;;;8.20;4.80;;;;;;;12.13;99.97;101171.23;102703;1295;71021;-75
2022/10/17 04:33:47;;;;;;;8.10;4.90;;;;;;;12.13;99.99;101172.23;102863;1290;61421;-75
2022/10/17 04:36:17;;;;;;;8.60;5.00;;;;;;;12.15;100.00;101173.54;102510;1302;60595;-75
2022/10/17 04:38:44;;;;;;;9.20;5.00;;;;;;;12.16;100.00;101175.73;102318;1303;73678;-75
2022/10/17 04:41:14;;;;;;;8.00;5.20;;;;;;;12.17;100.00;101173.77;104239;1294;68777;-75
2022/10/17 04:43:44;;;;;;;8.00;5.30;;;;;;;12.19;100.00;101172.48;102043;1304;72689;-75
2022/10/17 04:46:16;;;;;;;8.00;5.10;;;;;;;12.22;100.00;101171.15;103482;1300;60425;-76
2022/10/17 04:48:43;;;;;;;6.70;5.00;;;;;;;12.24;100.00;101174.92;102316;1303;60516;-75
2022/10/17 04:51:13;;;;;;;6.80;5.00;;;;;;;12.27;100.00;101174.47;102782;1297;72890;-74
2022/10/17 04:53:41;;;;;;;8.40;5.40;;;;;;;12.29;100.00;101172.13;102430;1300;69227;-75
2022/10/17 04:56:19;;;;;;;6.90;4.90;;;;;;;12.31;100.00;101171.39;102853;1304;72433;-75
2022/10/17 04:58:46;;;;;;;8.10;4.80;;;;;;;12.32;100.00;101173.36;102584;1303;60953;-74
2022/10/17 05:01:16;;;;;;;8.70;5.10;;;;;;;12.34;100.00;101174.34;103515;1295;60529;-76
2022/10/17 05:03:43;;;;;;;7.90;5.20;;;;;;;12.36;100.00;101169.13;102888;1304;72836;-76
2022/10/17 05:06:22;;;;;;;8.80;5.10;;;;;;;12.39;100.00;101170.26;103192;1296;71457;-76
2022/10/17 05:08:49;;;;;;;6.00;4.90;;;;;;;12.42;100.00;101174.45;102291;1300;74371;-75
2022/10/17 05:11:17;;;;;;;6.20;5.10;;;;;;;12.46;100.00;101179.39;102424;1303;60972;-74
2022/10/17 05:13:45;;;;;;;6.20;5.00;;;;;;;12.48;100.00;101181.11;103282;1277;60517;-77
2022/10/17 05:16:12;;;;;;;7.80;4.70;;;;;;;12.50;100.00;101174.15;103299;1284;72036;-76
2022/10/17 05:18:38;;;;;;;9.20;5.20;;;;;;;12.52;100.00;101174.30;103346;1294;60411;-76
2022/10/17 05:21:05;;;;;;;6.70;4.70;;;;;;;12.53;100.00;101174.33;103374;1295;60524;-75
2022/10/17 05:23:31;;;;;;;6.90;5.10;;;;;;;12.54;100.00;101174.15;102813;1286;61773;-75
2022/10/17 05:25:58;;;;;;;9.20;4.70;;;;;;;12.55;100.00;101177.94;103129;1257;60530;-76
2022/10/17 05:28:24;;;;;;;5.50;4.40;;;;;;;12.57;100.00;101181.86;102741;1294;61584;-75
2022/10/17 05:30:53;;;;;;;7.00;4.80;;;;;;;12.59;100.00;101180.41;102541;1293;60847;-76
2022/10/17 05:33:21;;;;;;;7.60;4.70;;;;;;;12.61;100.00;101183.86;102607;1295;71694;-75
2022/10/17 05:35:48;;;;;;;7.50;4.80;;;;;;;12.62;100.00;101183.52;103415;1294;60692;-76
2022/10/17 05:38:14;;;;;;;6.40;4.40;;;;;;;12.63;100.00;101184.10;102755;1301;61574;-76
2022/10/17 05:40:41;;;;;;;5.90;4.60;;;;;;;12.64;100.00;101180.61;102795;1301;60442;-75
2022/10/17 05:43:08;;;;;;;6.60;4.40;;;;;;;12.66;100.00;101182.96;103059;1297;71218;-78
2022/10/17 05:45:35;;;;;;;5.50;4.60;;;;;;;12.67;100.00;101182.35;102814;1304;72479;-77
2022/10/17 05:48:02;;;;;;;6.10;4.40;;;;;;;12.67;100.00;101177.86;102505;1299;60494;-75
2022/10/17 05:50:28;;;;;;;6.60;4.30;;;;;;;12.69;100.00;101179.38;102341;1298;60460;-79
2022/10/17 05:52:55;;;;;;;5.90;4.10;;;;;;;12.71;100.00;101174.94;103128;1300;60580;-75
2022/10/17 05:55:22;;;;;;;6.30;4.30;;;;;;;12.75;100.00;101174.34;103333;1293;60602;-75
2022/10/17 05:57:51;;;;;;;8.40;4.50;;;;;;;12.79;100.00;101169.42;103290;1297;71174;-76
2022/10/17 06:00:19;;;;;;;5.80;4.30;;;;;;;12.84;100.00;101167.19;103659;1294;62577;-79
2022/10/17 06:02:46;;;;;;;5.30;4.40;;;;;;;12.89;100.00;101164.28;102749;1303;60625;-77
2022/10/17 06:05:13;;;;;;;5.70;4.70;;;;;;;12.96;100.00;101167.10;102460;1296;72547;-73
2022/10/17 06:07:43;;;;;;;7.10;4.70;;;;;;;13.02;100.00;101164.05;102715;1280;70480;-73
2022/10/17 06:10:12;;;;;;;6.70;4.30;;;;;;;13.12;100.00;101166.35;103459;1302;72444;-74
2022/10/17 06:12:38;;;;;;;6.80;5.20;;;;;;;13.23;100.00;101172.42;102474;1301;60654;-73
2022/10/17 06:15:05;;;;;;;7.00;4.90;;;;;;;13.34;100.00;101170.59;102650;1295;60573;-74
2022/10/17 06:17:31;;;;;;;8.60;5.10;;;;;;;13.45;100.00;101171.84;103278;1298;73776;-74
2022/10/17 06:19:58;;;;;;;8.90;5.90;;;;;;;13.54;100.00;101175.16;102929;1295;62433;-74
2022/10/17 06:22:24;;;;;;;12.40;6.80;;;;;;;13.61;100.00;101175.54;102870;1301;60959;-73
2022/10/17 06:24:53;;;;;;;7.10;5.00;;;;;;;13.70;100.00;101183.95;102860;1293;61590;-74
2022/10/17 06:27:21;;;;;;;8.50;6.10;;;;;;;13.79;100.00;101183.88;102497;1304;60427;-73
2022/10/17 06:29:49;;;;;;;11.30;6.80;;;;;;;13.86;100.00;101183.59;103164;1296;73640;-73
2022/10/17 06:32:16;;;;;;;7.80;5.80;;;;;;;13.93;100.00;101187.41;102891;1304;69589;-73
2022/10/17 06:34:42;;;;;;;9.60;6.00;;;;;;;14.00;100.00;101186.77;102675;1304;71161;-73
2022/10/17 06:37:09;;;;;;;6.40;5.10;;;;;;;14.07;100.00;101186.68;103294;1302;60581;-74
2022/10/17 06:39:35;;;;;;;6.70;4.60;;;;;;;14.16;100.00;101190.02;102530;1300;60367;-73
2022/10/17 06:42:03;;;;;;;8.70;6.00;;;;;;;14.26;100.00;101189.48;103068;1302;60602;-74
2022/10/17 06:44:30;;;;;;;8.80;5.70;;;;;;;14.37;100.00;101192.60;103155;1293;71189;-74
2022/10/17 06:47:00;;;;;;;52.60;44.50;;;;;;;14.49;100.00;101196.15;103070;1287;72966;-73
2022/10/17 06:49:27;;;;;;;80.60;65.20;;;;;;;14.64;100.00;101204.30;102860;1296;60733;-72
2022/10/17 06:51:53;;;;;;;15.60;11.50;;;;;;;14.80;100.00;101211.61;103006;1297;60851;-74
2022/10/17 06:54:20;;;;;;;59.10;43.70;;;;;;;14.96;100.00;101212.03;102756;1304;60494;-73
2022/10/17 06:56:46;;;;;;;5.90;4.30;;;;;;;15.13;100.00;101211.77;102402;1288;62254;-74
2022/10/17 06:59:14;;;;;;;8.20;6.90;;;;;;;15.28;100.00;101202.97;102786;1300;60605;-73
2022/10/17 07:01:41;;;;;;;13.80;9.40;;;;;;;15.42;100.00;101208.23;103090;1304;60791;-73
2022/10/17 07:04:12;;;;;;;13.30;10.20;;;;;;;15.59;100.00;101213.80;103175;1298;60525;-73
2022/10/17 07:06:39;;;;;;;5.90;3.40;;;;;;;15.75;99.90;101218.79;102375;1296;73767;-73
2022/10/17 07:09:05;;;;;;;7.20;4.00;;;;;;;15.88;99.07;101223.98;102124;1306;61497;-73
2022/10/17 07:11:33;;;;;;;24.40;20.10;;;;;;;16.00;98.40;101224.42;102350;1307;72718;-72
2022/10/17 07:14:01;;;;;;;11.20;8.90;;;;;;;16.11;97.33;101222.46;102837;1307;60594;-74
2022/10/17 07:16:28;;;;;;;7.10;3.80;;;;;;;16.22;96.81;101213.77;102328;1297;60525;-73
2022/10/17 07:18:54;;;;;;;11.00;7.80;;;;;;;16.30;96.18;101213.61;102392;1300;60446;-73
2022/10/17 07:21:21;;;;;;;26.30;20.10;;;;;;;16.39;95.48;101216.32;102795;1307;70874;-73
2022/10/17 07:23:47;;;;;;;7.60;4.70;;;;;;;16.48;94.97;101226.45;102398;1307;61716;-73
2022/10/17 07:26:15;;;;;;;5.90;2.60;;;;;;;16.57;94.39;101235.11;102036;1305;71496;-73
2022/10/17 07:28:44;;;;;;;9.30;6.20;;;;;;;16.68;93.97;101235.06;102582;1302;61455;-73
2022/10/17 07:31:13;;;;;;;35.20;31.20;;;;;;;16.78;93.19;101241.25;102845;1302;73897;-73
2022/10/17 07:33:41;;;;;;;14.20;12.20;;;;;;;16.90;92.71;101240.92;102123;1297;68926;-73
2022/10/17 07:36:08;;;;;;;27.00;20.00;;;;;;;17.05;92.31;101238.11;102086;1305;72546;-73
2022/10/17 07:38:35;;;;;;;29.80;23.50;;;;;;;17.20;91.55;101238.77;103210;1282;60585;-70
2022/10/17 07:41:05;;;;;;;15.00;11.70;;;;;;;17.34;90.90;101236.39;104010;1301;61576;-72
2022/10/17 07:43:34;;;;;;;5.20;4.10;;;;;;;17.48;90.07;101237.24;103665;1301;73828;-72
2022/10/17 07:46:04;;;;;;;18.40;14.40;;;;;;;17.61;89.41;101243.01;103837;1294;70610;-72
2022/10/17 07:48:31;;;;;;;35.90;28.60;;;;;;;17.73;88.30;101244.11;103908;1301;71113;-73
2022/10/17 07:51:02;;;;;;;4.20;2.30;;;;;;;17.86;87.96;101242.51;104092;1302;60527;-73
2022/10/17 07:53:28;;;;;;;10.90;7.50;;;;;;;18.00;87.13;101235.45;102903;1287;61385;-73
2022/10/17 07:55:54;;;;;;;19.30;16.60;;;;;;;18.13;86.82;101238.85;102705;1294;60665;-73
2022/10/17 07:58:21;;;;;;;8.40;4.60;;;;;;;18.23;86.15;101241.53;102983;1301;60776;-73
2022/10/17 08:00:48;;;;;;;16.10;11.00;;;;;;;18.30;85.49;101246.34;102617;1297;60541;-72
2022/10/17 08:03:14;;;;;;;6.50;4.00;;;;;;;18.36;85.12;101243.42;102843;1295;60867;-71
2022/10/17 08:05:41;;;;;;;8.00;3.90;;;;;;;18.40;84.51;101240.16;102647;1301;60606;-72
2022/10/17 08:08:07;;;;;;;14.30;10.50;;;;;;;18.44;84.03;101235.50;102862;1301;59739;-72
2022/10/17 08:10:34;;;;;;;5.00;2.80;;;;;;;18.48;83.90;101233.21;102574;1294;60518;-72
2022/10/17 08:13:00;;;;;;;11.80;8.40;;;;;;;18.52;83.76;101237.45;102172;1304;60700;-73
2022/10/17 08:15:27;;;;;;;16.30;11.20;;;;;;;18.55;83.43;101238.55;102601;1284;60722;-73
2022/10/17 08:17:57;;;;;;;5.40;2.50;;;;;;;18.62;83.07;101240.91;102927;1294;60455;-73
2022/10/17 08:20:24;;;;;;;9.60;5.80;;;;;;;18.71;83.08;101237.92;102881;1295;73733;-72
2022/10/17 08:22:54;;;;;;;8.30;5.20;;;;;;;18.80;82.49;101240.11;102540;1300;69598;-72
2022/10/17 08:25:21;;;;;;;5.80;3.70;;;;;;;18.91;82.16;101240.35;104070;1294;71463;-73
2022/10/17 08:27:48;;;;;;;7.10;3.20;;;;;;;19.00;81.29;101238.02;102882;1303;62217;-73
2022/10/17 08:30:15;;;;;;;3.90;2.10;;;;;;;19.14;81.34;101237.72;102771;1288;60591;-72
2022/10/17 08:32:42;;;;;;;15.70;12.80;;;;;;;19.27;80.81;101238.73;102381;1302;73634;-72
2022/10/17 08:35:09;;;;;;;10.10;6.80;;;;;;;19.40;80.18;101242.05;102910;1301;69612;-73
2022/10/17 08:37:36;;;;;;;4.50;2.80;;;;;;;19.51;79.90;101237.33;102869;1301;71296;-73
2022/10/17 08:40:05;;;;;;;5.40;3.20;;;;;;;19.64;79.28;101240.73;102924;1303;61791;-73
2022/10/17 08:42:53;;;;;;;7.30;2.50;;;;;;;19.76;78.26;101244.94;102459;1304;60471;-73
2022/10/17 08:45:28;;;;;;;11.00;7.60;;;;;;;19.85;77.47;101239.30;102685;1302;73611;-71
2022/10/17 08:48:03;;;;;;;38.60;33.40;;;;;;;19.96;77.01;101239.14;102720;1302;70171;-72
2022/10/17 08:50:39;;;;;;;34.60;30.90;;;;;;;20.06;76.18;101241.48;102676;1288;72581;-72
2022/10/17 08:53:35;;;;;;;15.60;12.10;;;;;;;20.13;75.48;101239.45;102352;1295;60725;-72
2022/10/17 08:56:33;;;;;;;8.00;5.00;;;;;;;20.16;74.82;101239.88;103396;1297;61803;-73
2022/10/17 08:59:21;;;;;;;4.90;2.60;;;;;;;20.24;74.55;101239.94;102406;1304;74386;-73
2022/10/17 09:01:54;;;;;;;6.80;3.80;;;;;;;20.24;74.10;101235.59;105470;1295;69795;-73
2022/10/17 09:04:49;;;;;;;10.40;7.60;;;;;;;20.29;74.20;101232.70;105454;1294;70863;-73
2022/10/17 09:07:28;;;;;;;12.00;7.20;;;;;;;20.32;73.57;101223.63;105445;1295;60706;-73
2022/10/17 09:10:17;;;;;;;5.40;3.00;;;;;;;20.38;73.82;101222.44;105175;1293;59089;-73
2022/10/17 09:13:27;;;;;;;6.90;2.70;;;;;;;20.42;73.26;101216.75;103613;1296;72482;-73
2022/10/17 09:16:11;;;;;;;5.70;2.70;;;;;;;20.45;73.06;101211.16;102756;1303;69973;-73
2022/10/17 09:18:41;;;;;;;4.10;2.80;;;;;;;20.51;73.07;101210.67;102680;1296;72106;-73
2022/10/17 09:21:46;;;;;;;6.90;3.90;;;;;;;20.52;72.98;101202.02;102189;1293;61255;-72
2022/10/17 09:24:48;;;;;;;3.40;2.20;;;;;;;20.56;72.77;101204.86;102983;1296;60414;-76
2022/10/17 09:27:40;;;;;;;4.00;2.10;;;;;;;20.58;72.51;101209.13;102681;1302;72352;-72
2022/10/17 09:30:16;;;;;;;6.70;4.30;;;;;;;20.63;72.55;101210.42;103513;1286;70167;-72
2022/10/17 09:33:37;;;;;;;8.90;4.70;;;;;;;20.68;72.26;101219.45;103060;1287;71464;-72
2022/10/17 09:36:30;;;;;;;7.40;2.70;;;;;;;20.72;72.10;101218.27;102554;1302;62469;-73
2022/10/17 09:39:01;;;;;;;5.80;2.50;;;;;;;20.80;72.26;101225.15;102249;1297;60534;-73
2022/10/17 09:41:40;;;;;;;5.50;2.10;;;;;;;20.84;72.38;101229.64;102555;1302;72470;-72
2022/10/17 09:44:24;;;;;;;3.90;2.60;;;;;;;20.92;72.57;101231.33;103270;1292;71319;-73
2022/10/17 09:47:07;;;;;;;7.20;2.00;;;;;;;20.99;71.67;101240.74;103213;1301;71098;-76
2022/10/17 09:49:40;;;;;;;5.10;2.20;;;;;;;21.04;71.02;101239.41;103173;1302;61971;-73
2022/10/17 09:52:32;;;;;;;7.70;3.30;;;;;;;21.12;70.57;101238.00;102861;1301;60595;-73
2022/10/17 09:55:03;;;;;;;8.90;5.90;;;;;;;21.27;69.72;101240.23;102414;1294;71426;-75
2022/10/17 09:57:51;;;;;;;7.10;4.20;;;;;;;21.39;68.96;101242.48;102515;1300;71212;-76
2022/10/17 10:00:26;;;;;;;7.20;3.10;;;;;;;21.47;68.46;101246.17;102509;1293;70845;-74
2022/10/17 10:03:21;;;;;;;4.60;2.70;;;;;;;21.57;68.89;101244.17;103500;1292;60487;-74
2022/10/17 10:06:03;;;;;;;6.40;2.80;;;;;;;21.70;68.70;101248.02;103150;1301;60879;-72
2022/10/17 10:08:48;;;;;;;7.60;2.70;;;;;;;21.86;69.22;101246.48;102604;1301;73619;-73
2022/10/17 10:11:16;;;;;;;12.70;8.90;;;;;;;22.00;69.05;101250.63;102807;1294;70893;-73
2022/10/17 10:13:45;;;;;;;7.70;4.00;;;;;;;22.08;67.63;101248.97;102398;1303;71179;-74
2022/10/17 10:16:29;;;;;;;9.70;7.00;;;;;;;22.10;66.44;101249.92;102615;1303;60943;-73
2022/10/17 10:18:58;;;;;;;9.30;6.20;;;;;;;22.09;65.95;101255.20;103246;1297;59346;-73
2022/10/17 10:21:26;;;;;;;7.60;4.50;;;;;;;22.10;65.90;101247.55;103164;1301;60470;-74
2022/10/17 10:24:04;;;;;;;13.00;9.20;;;;;;;22.29;66.15;101241.47;103327;1295;71033;-73
2022/10/17 10:26:39;;;;;;;10.10;6.60;;;;;;;22.45;65.29;101237.52;104447;1293;71240;-71
2022/10/17 10:29:23;;;;;;;6.00;2.80;;;;;;;22.60;64.29;101250.36;103843;1296;61651;-71
2022/10/17 10:31:52;;;;;;;8.40;4.30;;;;;;;22.69;63.13;101258.89;104022;1294;61389;-72
2022/10/17 10:34:23;;;;;;;5.30;3.30;;;;;;;22.75;63.03;101258.98;104222;1285;73611;-72
2022/10/17 10:36:57;;;;;;;5.10;2.30;;;;;;;22.87;63.70;101258.42;104626;1294;70797;-72
2022/10/17 10:39:42;;;;;;;3.80;2.10;;;;;;;23.03;63.72;101263.42;103772;1293;71205;-74
2022/10/17 10:42:20;;;;;;;6.60;3.60;;;;;;;23.12;62.95;101265.50;102687;1295;60496;-73
2022/10/17 10:44:49;;;;;;;4.60;2.20;;;;;;;23.23;62.77;101268.52;102657;1294;60618;-74
2022/10/17 10:47:21;;;;;;;3.20;1.60;;;;;;;23.31;62.54;101271.65;103153;1304;73656;-73
2022/10/17 10:49:51;;;;;;;3.10;1.90;;;;;;;23.42;62.56;101264.94;103359;1297;69895;-73
2022/10/17 10:52:31;;;;;;;3.60;1.80;;;;;;;23.50;61.88;101258.89;102596;1294;71155;-72
2022/10/17 10:55:27;;;;;;;5.10;1.80;;;;;;;23.56;61.42;101263.69;103332;1302;61070;-74
2022/10/17 10:57:59;;;;;;;4.20;2.50;;;;;;;23.64;60.90;101262.73;102610;1302;60650;-73
2022/10/17 11:00:30;;;;;;;9.70;5.40;;;;;;;23.70;60.95;101263.85;102673;1281;72763;-75
2022/10/17 11:03:09;;;;;;;8.50;4.30;;;;;;;23.80;60.45;101265.15;103100;1300;71012;-73
2022/10/17 11:05:50;;;;;;;8.80;5.90;;;;;;;23.84;59.49;101265.70;102925;1302;72683;-73
2022/10/17 11:08:33;;;;;;;19.20;15.60;;;;;;;23.85;58.81;101270.00;103049;1297;60610;-72
2022/10/17 11:11:02;;;;;;;11.80;7.70;;;;;;;23.87;58.89;101273.22;102769;1295;61825;-71
2022/10/17 11:13:36;;;;;;;6.80;2.70;;;;;;;23.92;59.01;101278.45;103719;1287;72276;-73
2022/10/17 11:16:13;;;;;;;4.80;2.40;;;;;;;23.99;58.65;101277.56;102643;1304;70028;-73
2022/10/17 11:18:47;;;;;;;13.90;11.50;;;;;;;24.05;58.28;101277.69;103004;1300;71099;-73
2022/10/17 11:21:37;;;;;;;17.40;14.10;;;;;;;24.05;58.01;101278.94;103040;1295;60971;-70
2022/10/17 11:24:24;;;;;;;5.20;2.90;;;;;;;23.96;57.75;101280.35;103268;1297;60434;-73
2022/10/17 11:27:00;;;;;;;6.90;4.10;;;;;;;24.01;58.10;101269.13;102707;1297;73993;-72
2022/10/17 11:29:32;;;;;;;5.90;3.60;;;;;;;24.06;57.82;101270.06;102465;1287;69010;-72
2022/10/17 11:32:23;;;;;;;7.70;4.30;;;;;;;24.19;57.91;101266.86;102913;1294;70906;-72
2022/10/17 11:34:55;;;;;;;4.80;3.70;;;;;;;24.51;57.02;101264.05;102699;1295;60595;-74
2022/10/17 11:37:26;;;;;;;8.40;5.70;;;;;;;24.72;55.79;101262.73;103303;1295;60475;-72
2022/10/17 11:40:05;;;;;;;6.90;2.90;;;;;;;24.75;55.51;101259.17;102532;1291;71510;-73